Главная страница
METAR-TAF:

METAR-TAF

Аэропорты :

Dansville Municipal Airport

Dansville, Нью-Йорк, США

широта: 42-34-10N, долгота: 077-42-52W, высота над уровнем моря: 201 м

Текущие метеонаблюдения

Эта сводка был подготовлена 1 час и 9 минут назад, в 18:54 UTC
Ветер 6 Узел от восточный
Температура 23°C
Влажность 53%
Давление 1025 hPa
Видимость: 16.1 км
небольшая облачность на высоте 4700 фута
Сплошная облачность на высоте 7000 фута

METAR: KDSV 251854Z AUTO 10006KT 10SM FEW047 OVC070 23/13 A3026 RMK AO2 SLP253 T02330128

Время: 16:03 (20:03 UTC)


TAF: отсутствует

Метеонаблюдения и прогнозы для более 4000 аэропортов (сводки METAR и TAF).

Имеющиеся станции представлены на карте желтыми и красными точками.

Чтобы увидеть название станции, наведите на нее мышь.

Затем щелкните, чтобы увидеть метеонаблюдения и метеопрогнозы.

Управление картой: чтобы увеличить масштаб, щелкните зеленые кнопки с черным крестиком; чтобы уменьшить масштаб, щелкните зеленую кнопку с тире; для просмотра соседних карт щелкайте зеленые стрелки.


METAR-TAF: